sensor_id;sensor_type;location;lat;lon;timestamp;P1;durP1;ratioP1;P2;durP2;ratioP2
23573;SDS011;11965;53.640;10.050;2023-07-20T00:00:07;1.72;;;1.72;;
23573;SDS011;11965;53.640;10.050;2023-07-20T00:02:40;1.94;;;1.94;;
23573;SDS011;11965;53.640;10.050;2023-07-20T00:05:07;1.95;;;1.95;;
23573;SDS011;11965;53.640;10.050;2023-07-20T00:07:34;1.91;;;1.91;;
23573;SDS011;11965;53.640;10.050;2023-07-20T00:10:02;1.95;;;1.95;;
23573;SDS011;11965;53.640;10.050;2023-07-20T00:12:29;2.00;;;2.00;;
23573;SDS011;11965;53.640;10.050;2023-07-20T00:14:55;2.11;;;2.11;;
23573;SDS011;11965;53.640;10.050;2023-07-20T00:17:22;1.92;;;1.92;;
23573;SDS011;11965;53.640;10.050;2023-07-20T00:19:49;1.89;;;1.89;;
23573;SDS011;11965;53.640;10.050;2023-07-20T00:22:16;1.96;;;1.96;;
23573;SDS011;11965;53.640;10.050;2023-07-20T00:24:43;1.91;;;1.91;;
23573;SDS011;11965;53.640;10.050;2023-07-20T00:27:11;1.97;;;1.97;;
23573;SDS011;11965;53.640;10.050;2023-07-20T00:29:38;2.04;;;2.04;;
23573;SDS011;11965;53.640;10.050;2023-07-20T00:32:05;2.16;;;2.16;;
23573;SDS011;11965;53.640;10.050;2023-07-20T00:34:32;2.21;;;2.21;;
23573;SDS011;11965;53.640;10.050;2023-07-20T00:36:59;2.04;;;2.04;;
23573;SDS011;11965;53.640;10.050;2023-07-20T00:39:26;1.99;;;1.99;;
23573;SDS011;11965;53.640;10.050;2023-07-20T00:41:53;2.39;;;2.39;;
23573;SDS011;11965;53.640;10.050;2023-07-20T00:44:21;2.29;;;2.29;;
23573;SDS011;11965;53.640;10.050;2023-07-20T00:46:48;2.20;;;2.20;;
23573;SDS011;11965;53.640;10.050;2023-07-20T00:49:15;2.36;;;2.36;;
23573;SDS011;11965;53.640;10.050;2023-07-20T00:51:46;2.52;;;2.52;;
23573;SDS011;11965;53.640;10.050;2023-07-20T00:54:15;2.96;;;2.96;;
23573;SDS011;11965;53.640;10.050;2023-07-20T00:56:42;2.74;;;2.74;;
23573;SDS011;11965;53.640;10.050;2023-07-20T00:59:12;2.70;;;2.70;;
23573;SDS011;11965;53.640;10.050;2023-07-20T01:01:40;2.59;;;2.59;;
23573;SDS011;11965;53.640;10.050;2023-07-20T01:04:08;2.76;;;2.76;;
23573;SDS011;11965;53.640;10.050;2023-07-20T01:06:36;2.45;;;2.45;;
23573;SDS011;11965;53.640;10.050;2023-07-20T01:09:14;2.85;;;2.85;;
23573;SDS011;11965;53.640;10.050;2023-07-20T01:11:48;2.96;;;2.96;;
23573;SDS011;11965;53.640;10.050;2023-07-20T01:14:26;3.32;;;3.32;;
23573;SDS011;11965;53.640;10.050;2023-07-20T01:16:55;3.23;;;3.23;;
23573;SDS011;11965;53.640;10.050;2023-07-20T01:19:22;3.34;;;3.34;;
23573;SDS011;11965;53.640;10.050;2023-07-20T01:21:51;3.51;;;3.51;;
23573;SDS011;11965;53.640;10.050;2023-07-20T01:27:25;3.48;;;3.48;;
23573;SDS011;11965;53.640;10.050;2023-07-20T01:30:25;3.44;;;3.44;;
23573;SDS011;11965;53.640;10.050;2023-07-20T01:33:13;3.63;;;3.63;;
23573;SDS011;11965;53.640;10.050;2023-07-20T01:35:43;4.00;;;4.00;;
23573;SDS011;11965;53.640;10.050;2023-07-20T01:38:14;3.59;;;3.59;;
23573;SDS011;11965;53.640;10.050;2023-07-20T01:40:45;3.88;;;3.88;;
23573;SDS011;11965;53.640;10.050;2023-07-20T01:43:12;3.73;;;3.73;;
23573;SDS011;11965;53.640;10.050;2023-07-20T01:45:39;3.93;;;3.93;;
23573;SDS011;11965;53.640;10.050;2023-07-20T01:48:06;4.09;;;4.09;;
23573;SDS011;11965;53.640;10.050;2023-07-20T01:50:35;3.83;;;3.83;;
23573;SDS011;11965;53.640;10.050;2023-07-20T01:53:02;4.03;;;4.03;;
23573;SDS011;11965;53.640;10.050;2023-07-20T01:55:29;4.43;;;4.43;;
23573;SDS011;11965;53.640;10.050;2023-07-20T01:57:56;4.30;;;4.30;;
23573;SDS011;11965;53.640;10.050;2023-07-20T02:00:24;4.35;;;4.35;;
23573;SDS011;11965;53.640;10.050;2023-07-20T02:02:51;4.26;;;4.26;;
23573;SDS011;11965;53.640;10.050;2023-07-20T02:05:18;4.48;;;4.48;;
23573;SDS011;11965;53.640;10.050;2023-07-20T02:07:46;4.70;;;4.70;;
23573;SDS011;11965;53.640;10.050;2023-07-20T02:10:18;4.51;;;4.51;;
23573;SDS011;11965;53.640;10.050;2023-07-20T02:12:44;4.34;;;4.34;;
23573;SDS011;11965;53.640;10.050;2023-07-20T02:15:11;4.28;;;4.28;;
23573;SDS011;11965;53.640;10.050;2023-07-20T02:17:40;4.46;;;4.46;;
23573;SDS011;11965;53.640;10.050;2023-07-20T02:20:07;4.89;;;4.89;;
23573;SDS011;11965;53.640;10.050;2023-07-20T02:22:35;4.60;;;4.60;;
23573;SDS011;11965;53.640;10.050;2023-07-20T02:25:05;4.74;;;4.74;;
23573;SDS011;11965;53.640;10.050;2023-07-20T02:27:33;4.62;;;4.62;;
23573;SDS011;11965;53.640;10.050;2023-07-20T02:30:01;4.74;;;4.74;;
23573;SDS011;11965;53.640;10.050;2023-07-20T02:32:29;4.32;;;4.32;;
23573;SDS011;11965;53.640;10.050;2023-07-20T02:34:57;4.71;;;4.71;;
23573;SDS011;11965;53.640;10.050;2023-07-20T02:37:24;4.90;;;4.90;;
23573;SDS011;11965;53.640;10.050;2023-07-20T02:39:51;4.85;;;4.85;;
23573;SDS011;11965;53.640;10.050;2023-07-20T02:42:19;4.81;;;4.81;;
23573;SDS011;11965;53.640;10.050;2023-07-20T02:44:48;4.86;;;4.86;;
23573;SDS011;11965;53.640;10.050;2023-07-20T02:47:15;4.72;;;4.72;;
23573;SDS011;11965;53.640;10.050;2023-07-20T02:49:42;5.17;;;5.17;;
23573;SDS011;11965;53.640;10.050;2023-07-20T02:52:09;5.27;;;5.27;;
23573;SDS011;11965;53.640;10.050;2023-07-20T02:54:36;5.44;;;5.44;;
23573;SDS011;11965;53.640;10.050;2023-07-20T02:57:03;5.58;;;5.58;;
23573;SDS011;11965;53.640;10.050;2023-07-20T02:59:31;5.40;;;5.40;;
23573;SDS011;11965;53.640;10.050;2023-07-20T03:01:58;5.33;;;5.33;;
23573;SDS011;11965;53.640;10.050;2023-07-20T03:04:25;5.25;;;5.25;;
23573;SDS011;11965;53.640;10.050;2023-07-20T03:06:52;5.25;;;5.25;;
23573;SDS011;11965;53.640;10.050;2023-07-20T03:09:19;5.36;;;5.36;;
23573;SDS011;11965;53.640;10.050;2023-07-20T03:11:47;5.72;;;5.72;;
23573;SDS011;11965;53.640;10.050;2023-07-20T03:14:15;5.60;;;5.60;;
23573;SDS011;11965;53.640;10.050;2023-07-20T03:16:44;5.73;;;5.73;;
23573;SDS011;11965;53.640;10.050;2023-07-20T03:19:12;5.96;;;5.96;;
23573;SDS011;11965;53.640;10.050;2023-07-20T03:21:40;5.78;;;5.78;;
23573;SDS011;11965;53.640;10.050;2023-07-20T03:24:07;5.94;;;5.94;;
23573;SDS011;11965;53.640;10.050;2023-07-20T03:26:35;6.27;;;6.27;;
23573;SDS011;11965;53.640;10.050;2023-07-20T03:29:02;6.10;;;6.10;;
23573;SDS011;11965;53.640;10.050;2023-07-20T03:31:31;6.50;;;6.50;;
23573;SDS011;11965;53.640;10.050;2023-07-20T03:33:59;6.32;;;6.32;;
23573;SDS011;11965;53.640;10.050;2023-07-20T03:36:26;6.58;;;6.58;;
23573;SDS011;11965;53.640;10.050;2023-07-20T03:38:53;6.45;;;6.45;;
23573;SDS011;11965;53.640;10.050;2023-07-20T03:41:20;6.12;;;6.12;;
23573;SDS011;11965;53.640;10.050;2023-07-20T03:43:47;5.90;;;5.90;;
23573;SDS011;11965;53.640;10.050;2023-07-20T03:46:14;5.57;;;5.57;;
23573;SDS011;11965;53.640;10.050;2023-07-20T03:48:41;5.65;;;5.65;;
23573;SDS011;11965;53.640;10.050;2023-07-20T03:51:09;5.60;;;5.60;;
23573;SDS011;11965;53.640;10.050;2023-07-20T03:53:36;5.22;;;5.22;;
23573;SDS011;11965;53.640;10.050;2023-07-20T03:56:04;4.85;;;4.85;;
23573;SDS011;11965;53.640;10.050;2023-07-20T03:58:31;4.82;;;4.82;;
23573;SDS011;11965;53.640;10.050;2023-07-20T04:00:57;4.70;;;4.70;;
23573;SDS011;11965;53.640;10.050;2023-07-20T04:03:24;4.49;;;4.49;;
23573;SDS011;11965;53.640;10.050;2023-07-20T04:05:53;4.34;;;4.34;;
23573;SDS011;11965;53.640;10.050;2023-07-20T04:08:21;4.02;;;4.02;;
23573;SDS011;11965;53.640;10.050;2023-07-20T04:10:49;4.40;;;4.40;;
23573;SDS011;11965;53.640;10.050;2023-07-20T04:13:16;4.34;;;4.34;;
23573;SDS011;11965;53.640;10.050;2023-07-20T04:15:44;4.50;;;4.50;;
23573;SDS011;11965;53.640;10.050;2023-07-20T04:18:10;4.44;;;4.44;;
23573;SDS011;11965;53.640;10.050;2023-07-20T04:20:37;4.42;;;4.42;;
23573;SDS011;11965;53.640;10.050;2023-07-20T04:23:04;4.78;;;4.78;;
23573;SDS011;11965;53.640;10.050;2023-07-20T04:25:33;4.47;;;4.47;;
23573;SDS011;11965;53.640;10.050;2023-07-20T04:28:04;4.87;;;4.87;;
23573;SDS011;11965;53.640;10.050;2023-07-20T04:30:36;4.49;;;4.49;;
23573;SDS011;11965;53.640;10.050;2023-07-20T04:33:04;4.49;;;4.49;;
23573;SDS011;11965;53.640;10.050;2023-07-20T04:35:47;4.58;;;4.58;;
23573;SDS011;11965;53.640;10.050;2023-07-20T04:38:22;4.53;;;4.53;;
23573;SDS011;11965;53.640;10.050;2023-07-20T04:40:59;4.50;;;4.50;;
23573;SDS011;11965;53.640;10.050;2023-07-20T04:43:28;4.27;;;4.27;;
23573;SDS011;11965;53.640;10.050;2023-07-20T04:45:56;4.19;;;4.19;;
23573;SDS011;11965;53.640;10.050;2023-07-20T04:48:24;4.23;;;4.23;;
23573;SDS011;11965;53.640;10.050;2023-07-20T04:50:54;4.33;;;4.33;;
23573;SDS011;11965;53.640;10.050;2023-07-20T04:53:21;3.96;;;3.96;;
23573;SDS011;11965;53.640;10.050;2023-07-20T04:55:48;3.75;;;3.75;;
23573;SDS011;11965;53.640;10.050;2023-07-20T04:58:19;3.74;;;3.74;;
23573;SDS011;11965;53.640;10.050;2023-07-20T05:00:47;3.90;;;3.90;;
23573;SDS011;11965;53.640;10.050;2023-07-20T05:03:15;3.77;;;3.77;;
23573;SDS011;11965;53.640;10.050;2023-07-20T05:05:42;3.91;;;3.91;;
23573;SDS011;11965;53.640;10.050;2023-07-20T05:08:10;3.55;;;3.55;;
23573;SDS011;11965;53.640;10.050;2023-07-20T05:10:38;3.65;;;3.65;;
23573;SDS011;11965;53.640;10.050;2023-07-20T05:13:05;3.74;;;3.74;;
23573;SDS011;11965;53.640;10.050;2023-07-20T05:15:33;3.78;;;3.78;;
23573;SDS011;11965;53.640;10.050;2023-07-20T05:18:02;3.60;;;3.60;;
23573;SDS011;11965;53.640;10.050;2023-07-20T05:20:29;3.37;;;3.37;;
23573;SDS011;11965;53.640;10.050;2023-07-20T05:22:57;3.35;;;3.35;;
23573;SDS011;11965;53.640;10.050;2023-07-20T05:25:23;3.30;;;3.30;;
23573;SDS011;11965;53.640;10.050;2023-07-20T05:27:51;3.10;;;3.10;;
23573;SDS011;11965;53.640;10.050;2023-07-20T05:30:20;2.95;;;2.95;;
23573;SDS011;11965;53.640;10.050;2023-07-20T05:32:48;3.12;;;3.12;;
23573;SDS011;11965;53.640;10.050;2023-07-20T05:35:17;2.81;;;2.81;;
23573;SDS011;11965;53.640;10.050;2023-07-20T05:37:44;2.96;;;2.96;;
23573;SDS011;11965;53.640;10.050;2023-07-20T05:40:12;2.74;;;2.74;;
23573;SDS011;11965;53.640;10.050;2023-07-20T05:42:40;3.26;;;3.26;;
23573;SDS011;11965;53.640;10.050;2023-07-20T05:45:07;3.33;;;3.33;;
23573;SDS011;11965;53.640;10.050;2023-07-20T05:47:34;2.81;;;2.81;;
23573;SDS011;11965;53.640;10.050;2023-07-20T05:50:02;2.59;;;2.59;;
23573;SDS011;11965;53.640;10.050;2023-07-20T05:52:29;2.70;;;2.70;;
23573;SDS011;11965;53.640;10.050;2023-07-20T05:54:56;2.41;;;2.41;;
23573;SDS011;11965;53.640;10.050;2023-07-20T05:57:24;2.67;;;2.67;;
23573;SDS011;11965;53.640;10.050;2023-07-20T05:59:51;2.37;;;2.37;;
23573;SDS011;11965;53.640;10.050;2023-07-20T06:02:18;2.61;;;2.61;;
23573;SDS011;11965;53.640;10.050;2023-07-20T06:04:44;2.63;;;2.63;;
23573;SDS011;11965;53.640;10.050;2023-07-20T06:07:13;2.49;;;2.49;;
23573;SDS011;11965;53.640;10.050;2023-07-20T06:09:40;2.52;;;2.52;;
23573;SDS011;11965;53.640;10.050;2023-07-20T06:12:07;2.52;;;2.52;;
23573;SDS011;11965;53.640;10.050;2023-07-20T06:14:34;2.37;;;2.37;;
23573;SDS011;11965;53.640;10.050;2023-07-20T06:17:01;2.54;;;2.54;;
23573;SDS011;11965;53.640;10.050;2023-07-20T06:19:28;2.32;;;2.32;;
23573;SDS011;11965;53.640;10.050;2023-07-20T06:21:55;2.24;;;2.24;;
23573;SDS011;11965;53.640;10.050;2023-07-20T06:24:23;2.34;;;2.34;;
23573;SDS011;11965;53.640;10.050;2023-07-20T06:26:50;2.29;;;2.29;;
23573;SDS011;11965;53.640;10.050;2023-07-20T06:29:17;2.22;;;2.22;;
23573;SDS011;11965;53.640;10.050;2023-07-20T06:31:44;2.06;;;2.06;;
23573;SDS011;11965;53.640;10.050;2023-07-20T06:34:11;2.26;;;2.26;;
23573;SDS011;11965;53.640;10.050;2023-07-20T06:36:38;2.14;;;2.14;;
23573;SDS011;11965;53.640;10.050;2023-07-20T06:39:05;2.06;;;2.06;;
23573;SDS011;11965;53.640;10.050;2023-07-20T06:41:33;2.12;;;2.12;;
23573;SDS011;11965;53.640;10.050;2023-07-20T06:44:00;2.12;;;2.12;;
23573;SDS011;11965;53.640;10.050;2023-07-20T06:46:27;2.18;;;2.18;;
23573;SDS011;11965;53.640;10.050;2023-07-20T06:48:53;2.02;;;2.02;;
23573;SDS011;11965;53.640;10.050;2023-07-20T06:51:20;1.88;;;1.88;;
23573;SDS011;11965;53.640;10.050;2023-07-20T06:53:47;2.03;;;2.03;;
23573;SDS011;11965;53.640;10.050;2023-07-20T06:56:14;1.80;;;1.80;;
23573;SDS011;11965;53.640;10.050;2023-07-20T06:58:42;1.91;;;1.91;;
23573;SDS011;11965;53.640;10.050;2023-07-20T07:01:09;1.84;;;1.84;;
23573;SDS011;11965;53.640;10.050;2023-07-20T07:03:36;1.81;;;1.81;;
23573;SDS011;11965;53.640;10.050;2023-07-20T07:06:03;2.06;;;2.06;;
23573;SDS011;11965;53.640;10.050;2023-07-20T07:08:30;1.84;;;1.84;;
23573;SDS011;11965;53.640;10.050;2023-07-20T07:10:57;1.70;;;1.70;;
23573;SDS011;11965;53.640;10.050;2023-07-20T07:13:24;1.83;;;1.83;;
23573;SDS011;11965;53.640;10.050;2023-07-20T07:15:52;1.69;;;1.69;;
23573;SDS011;11965;53.640;10.050;2023-07-20T07:18:19;1.64;;;1.64;;
23573;SDS011;11965;53.640;10.050;2023-07-20T07:20:52;1.69;;;1.69;;
23573;SDS011;11965;53.640;10.050;2023-07-20T07:23:20;1.77;;;1.77;;
23573;SDS011;11965;53.640;10.050;2023-07-20T07:25:46;1.57;;;1.57;;
23573;SDS011;11965;53.640;10.050;2023-07-20T07:28:13;1.60;;;1.60;;
23573;SDS011;11965;53.640;10.050;2023-07-20T07:30:40;1.68;;;1.68;;
23573;SDS011;11965;53.640;10.050;2023-07-20T07:33:09;1.88;;;1.88;;
23573;SDS011;11965;53.640;10.050;2023-07-20T07:35:36;1.77;;;1.77;;
23573;SDS011;11965;53.640;10.050;2023-07-20T07:38:03;1.99;;;1.99;;
23573;SDS011;11965;53.640;10.050;2023-07-20T07:40:31;1.95;;;1.95;;
23573;SDS011;11965;53.640;10.050;2023-07-20T07:42:58;1.99;;;1.99;;
23573;SDS011;11965;53.640;10.050;2023-07-20T07:45:25;2.06;;;2.06;;
23573;SDS011;11965;53.640;10.050;2023-07-20T07:47:52;1.96;;;1.96;;
23573;SDS011;11965;53.640;10.050;2023-07-20T07:50:20;2.07;;;2.07;;
23573;SDS011;11965;53.640;10.050;2023-07-20T07:52:47;2.08;;;2.08;;
23573;SDS011;11965;53.640;10.050;2023-07-20T07:55:14;2.30;;;2.29;;
23573;SDS011;11965;53.640;10.050;2023-07-20T07:57:43;2.27;;;2.26;;
23573;SDS011;11965;53.640;10.050;2023-07-20T08:00:10;2.36;;;2.35;;
23573;SDS011;11965;53.640;10.050;2023-07-20T08:02:40;2.12;;;2.11;;
23573;SDS011;11965;53.640;10.050;2023-07-20T08:05:08;2.33;;;2.33;;
23573;SDS011;11965;53.640;10.050;2023-07-20T08:07:36;2.32;;;2.32;;
23573;SDS011;11965;53.640;10.050;2023-07-20T08:10:04;2.21;;;2.21;;
23573;SDS011;11965;53.640;10.050;2023-07-20T08:12:31;2.54;;;2.54;;
23573;SDS011;11965;53.640;10.050;2023-07-20T08:14:58;2.64;;;2.64;;
23573;SDS011;11965;53.640;10.050;2023-07-20T08:17:25;2.36;;;2.36;;
23573;SDS011;11965;53.640;10.050;2023-07-20T08:19:52;2.70;;;2.70;;
23573;SDS011;11965;53.640;10.050;2023-07-20T08:22:19;2.97;;;2.97;;
23573;SDS011;11965;53.640;10.050;2023-07-20T08:24:47;2.80;;;2.80;;
23573;SDS011;11965;53.640;10.050;2023-07-20T08:27:14;2.57;;;2.52;;
23573;SDS011;11965;53.640;10.050;2023-07-20T08:29:41;2.69;;;2.64;;
23573;SDS011;11965;53.640;10.050;2023-07-20T08:32:08;2.80;;;2.75;;
23573;SDS011;11965;53.640;10.050;2023-07-20T08:34:35;2.78;;;2.73;;
23573;SDS011;11965;53.640;10.050;2023-07-20T08:37:02;2.72;;;2.62;;
23573;SDS011;11965;53.640;10.050;2023-07-20T08:39:28;2.51;;;2.43;;
23573;SDS011;11965;53.640;10.050;2023-07-20T08:41:57;2.35;;;2.27;;
23573;SDS011;11965;53.640;10.050;2023-07-20T08:44:29;2.35;;;2.27;;
23573;SDS011;11965;53.640;10.050;2023-07-20T08:46:59;2.27;;;2.16;;
23573;SDS011;11965;53.640;10.050;2023-07-20T08:49:29;2.25;;;2.15;;
23573;SDS011;11965;53.640;10.050;2023-07-20T08:51:57;2.10;;;2.03;;
23573;SDS011;11965;53.640;10.050;2023-07-20T08:54:25;2.13;;;2.10;;
23573;SDS011;11965;53.640;10.050;2023-07-20T08:56:59;2.48;;;2.39;;
23573;SDS011;11965;53.640;10.050;2023-07-20T08:59:28;2.32;;;2.22;;
23573;SDS011;11965;53.640;10.050;2023-07-20T09:01:58;2.24;;;2.13;;
23573;SDS011;11965;53.640;10.050;2023-07-20T09:04:25;2.36;;;2.24;;
23573;SDS011;11965;53.640;10.050;2023-07-20T09:06:52;2.08;;;1.99;;
23573;SDS011;11965;53.640;10.050;2023-07-20T09:09:20;2.23;;;2.16;;
23573;SDS011;11965;53.640;10.050;2023-07-20T09:11:47;2.47;;;2.39;;
23573;SDS011;11965;53.640;10.050;2023-07-20T09:14:16;2.67;;;2.62;;
23573;SDS011;11965;53.640;10.050;2023-07-20T09:16:47;2.56;;;2.49;;
23573;SDS011;11965;53.640;10.050;2023-07-20T09:19:15;1.96;;;1.90;;
23573;SDS011;11965;53.640;10.050;2023-07-20T09:21:44;1.59;;;1.53;;
23573;SDS011;11965;53.640;10.050;2023-07-20T09:24:12;1.53;;;1.48;;
23573;SDS011;11965;53.640;10.050;2023-07-20T09:26:42;1.92;;;1.84;;
23573;SDS011;11965;53.640;10.050;2023-07-20T09:29:11;1.38;;;1.33;;
23573;SDS011;11965;53.640;10.050;2023-07-20T09:31:39;1.54;;;1.49;;
23573;SDS011;11965;53.640;10.050;2023-07-20T09:34:06;1.32;;;1.26;;
23573;SDS011;11965;53.640;10.050;2023-07-20T09:36:34;1.41;;;1.35;;
23573;SDS011;11965;53.640;10.050;2023-07-20T09:39:03;1.39;;;1.36;;
23573;SDS011;11965;53.640;10.050;2023-07-20T09:41:31;1.52;;;1.44;;
23573;SDS011;11965;53.640;10.050;2023-07-20T09:44:07;1.85;;;1.76;;
23573;SDS011;11965;53.640;10.050;2023-07-20T09:46:43;1.63;;;1.55;;
23573;SDS011;11965;53.640;10.050;2023-07-20T09:49:11;1.58;;;1.50;;
23573;SDS011;11965;53.640;10.050;2023-07-20T09:51:38;1.40;;;1.31;;
23573;SDS011;11965;53.640;10.050;2023-07-20T09:54:07;1.30;;;1.23;;
23573;SDS011;11965;53.640;10.050;2023-07-20T09:56:34;1.16;;;1.08;;
23573;SDS011;11965;53.640;10.050;2023-07-20T09:59:01;1.01;;;0.94;;
23573;SDS011;11965;53.640;10.050;2023-07-20T10:01:28;0.94;;;0.86;;
23573;SDS011;11965;53.640;10.050;2023-07-20T10:03:58;1.31;;;1.20;;
23573;SDS011;11965;53.640;10.050;2023-07-20T10:06:30;1.20;;;1.10;;
23573;SDS011;11965;53.640;10.050;2023-07-20T10:09:02;1.41;;;1.29;;
23573;SDS011;11965;53.640;10.050;2023-07-20T10:11:31;1.28;;;1.16;;
23573;SDS011;11965;53.640;10.050;2023-07-20T10:14:03;1.17;;;1.06;;
23573;SDS011;11965;53.640;10.050;2023-07-20T10:16:34;1.20;;;1.08;;
23573;SDS011;11965;53.640;10.050;2023-07-20T10:19:05;1.24;;;1.11;;
23573;SDS011;11965;53.640;10.050;2023-07-20T10:21:40;1.53;;;1.36;;
23573;SDS011;11965;53.640;10.050;2023-07-20T10:24:08;1.03;;;0.90;;
23573;SDS011;11965;53.640;10.050;2023-07-20T10:26:37;1.53;;;1.33;;
23573;SDS011;11965;53.640;10.050;2023-07-20T10:29:05;1.27;;;1.08;;
23573;SDS011;11965;53.640;10.050;2023-07-20T10:31:33;1.91;;;1.61;;
23573;SDS011;11965;53.640;10.050;2023-07-20T10:34:02;1.56;;;1.31;;
23573;SDS011;11965;53.640;10.050;2023-07-20T10:36:31;2.23;;;1.88;;
23573;SDS011;11965;53.640;10.050;2023-07-20T10:38:58;1.59;;;1.38;;
23573;SDS011;11965;53.640;10.050;2023-07-20T10:41:31;1.79;;;1.56;;
23573;SDS011;11965;53.640;10.050;2023-07-20T10:44:01;1.65;;;1.46;;
23573;SDS011;11965;53.640;10.050;2023-07-20T10:46:42;1.89;;;1.68;;
23573;SDS011;11965;53.640;10.050;2023-07-20T10:49:12;1.42;;;1.25;;
23573;SDS011;11965;53.640;10.050;2023-07-20T10:51:42;1.48;;;1.32;;
23573;SDS011;11965;53.640;10.050;2023-07-20T11:00:07;1.52;;;1.35;;
23573;SDS011;11965;53.640;10.050;2023-07-20T11:02:46;1.66;;;1.49;;
23573;SDS011;11965;53.640;10.050;2023-07-20T11:05:35;1.18;;;1.06;;
23573;SDS011;11965;53.640;10.050;2023-07-20T11:08:04;1.16;;;1.04;;
23573;SDS011;11965;53.640;10.050;2023-07-20T11:10:33;1.39;;;1.23;;
23573;SDS011;11965;53.640;10.050;2023-07-20T11:13:19;1.39;;;1.22;;
23573;SDS011;11965;53.640;10.050;2023-07-20T11:15:52;1.61;;;1.41;;
23573;SDS011;11965;53.640;10.050;2023-07-20T11:18:29;1.41;;;1.24;;
23573;SDS011;11965;53.640;10.050;2023-07-20T11:20:59;1.56;;;1.40;;
23573;SDS011;11965;53.640;10.050;2023-07-20T11:23:26;1.30;;;1.15;;
23573;SDS011;11965;53.640;10.050;2023-07-20T11:25:54;1.55;;;1.36;;
23573;SDS011;11965;53.640;10.050;2023-07-20T11:28:20;1.29;;;1.15;;
23573;SDS011;11965;53.640;10.050;2023-07-20T11:30:50;1.61;;;1.42;;
23573;SDS011;11965;53.640;10.050;2023-07-20T11:33:18;1.52;;;1.31;;
23573;SDS011;11965;53.640;10.050;2023-07-20T11:35:45;1.64;;;1.39;;
23573;SDS011;11965;53.640;10.050;2023-07-20T11:38:14;1.38;;;1.17;;
23573;SDS011;11965;53.640;10.050;2023-07-20T11:40:44;1.31;;;1.11;;
23573;SDS011;11965;53.640;10.050;2023-07-20T11:43:12;0.98;;;0.84;;
23573;SDS011;11965;53.640;10.050;2023-07-20T11:45:39;1.06;;;0.91;;
23573;SDS011;11965;53.640;10.050;2023-07-20T11:48:06;0.86;;;0.73;;
23573;SDS011;11965;53.640;10.050;2023-07-20T11:50:38;1.05;;;0.90;;
23573;SDS011;11965;53.640;10.050;2023-07-20T11:53:05;1.01;;;0.88;;
23573;SDS011;11965;53.640;10.050;2023-07-20T11:55:34;1.08;;;0.94;;
23573;SDS011;11965;53.640;10.050;2023-07-20T11:58:02;1.17;;;1.04;;
23573;SDS011;11965;53.640;10.050;2023-07-20T12:00:29;0.87;;;0.78;;
23573;SDS011;11965;53.640;10.050;2023-07-20T12:02:56;1.13;;;1.01;;
23573;SDS011;11965;53.640;10.050;2023-07-20T12:05:23;1.25;;;1.13;;
23573;SDS011;11965;53.640;10.050;2023-07-20T12:07:51;1.40;;;1.26;;
23573;SDS011;11965;53.640;10.050;2023-07-20T12:10:23;1.52;;;1.33;;
23573;SDS011;11965;53.640;10.050;2023-07-20T12:12:53;1.93;;;1.67;;
23573;SDS011;11965;53.640;10.050;2023-07-20T12:15:20;1.66;;;1.44;;
23573;SDS011;11965;53.640;10.050;2023-07-20T12:17:49;1.45;;;1.24;;
23573;SDS011;11965;53.640;10.050;2023-07-20T12:20:24;1.41;;;1.22;;
23573;SDS011;11965;53.640;10.050;2023-07-20T12:22:55;1.84;;;1.59;;
23573;SDS011;11965;53.640;10.050;2023-07-20T12:25:23;1.99;;;1.72;;
23573;SDS011;11965;53.640;10.050;2023-07-20T12:28:01;1.58;;;1.37;;
23573;SDS011;11965;53.640;10.050;2023-07-20T12:30:29;1.54;;;1.35;;
23573;SDS011;11965;53.640;10.050;2023-07-20T12:32:56;1.81;;;1.58;;
23573;SDS011;11965;53.640;10.050;2023-07-20T12:35:22;1.82;;;1.57;;
23573;SDS011;11965;53.640;10.050;2023-07-20T12:37:49;1.76;;;1.52;;
23573;SDS011;11965;53.640;10.050;2023-07-20T12:40:16;2.17;;;1.86;;
23573;SDS011;11965;53.640;10.050;2023-07-20T12:42:43;1.74;;;1.49;;
23573;SDS011;11965;53.640;10.050;2023-07-20T12:45:12;1.89;;;1.62;;
23573;SDS011;11965;53.640;10.050;2023-07-20T12:47:40;1.70;;;1.48;;
23573;SDS011;11965;53.640;10.050;2023-07-20T12:50:08;1.89;;;1.66;;
23573;SDS011;11965;53.640;10.050;2023-07-20T12:52:36;2.14;;;1.92;;
23573;SDS011;11965;53.640;10.050;2023-07-20T12:55:04;1.82;;;1.63;;
23573;SDS011;11965;53.640;10.050;2023-07-20T12:57:32;1.66;;;1.49;;
23573;SDS011;11965;53.640;10.050;2023-07-20T13:00:00;1.46;;;1.32;;
23573;SDS011;11965;53.640;10.050;2023-07-20T13:02:28;1.58;;;1.44;;
23573;SDS011;11965;53.640;10.050;2023-07-20T13:04:55;1.58;;;1.44;;
23573;SDS011;11965;53.640;10.050;2023-07-20T13:07:29;1.71;;;1.54;;
23573;SDS011;11965;53.640;10.050;2023-07-20T13:09:57;1.48;;;1.31;;
23573;SDS011;11965;53.640;10.050;2023-07-20T13:12:25;1.45;;;1.28;;
23573;SDS011;11965;53.640;10.050;2023-07-20T13:14:53;1.35;;;1.18;;
23573;SDS011;11965;53.640;10.050;2023-07-20T13:17:21;1.45;;;1.26;;
23573;SDS011;11965;53.640;10.050;2023-07-20T13:19:49;1.28;;;1.10;;
23573;SDS011;11965;53.640;10.050;2023-07-20T13:22:17;1.95;;;1.65;;
23573;SDS011;11965;53.640;10.050;2023-07-20T13:24:44;1.77;;;1.47;;
23573;SDS011;11965;53.640;10.050;2023-07-20T13:27:14;1.79;;;1.51;;
23573;SDS011;11965;53.640;10.050;2023-07-20T13:29:41;1.89;;;1.62;;
23573;SDS011;11965;53.640;10.050;2023-07-20T13:32:08;1.67;;;1.45;;
23573;SDS011;11965;53.640;10.050;2023-07-20T13:34:35;1.50;;;1.32;;
23573;SDS011;11965;53.640;10.050;2023-07-20T13:37:04;1.59;;;1.41;;
23573;SDS011;11965;53.640;10.050;2023-07-20T13:39:32;1.50;;;1.34;;
23573;SDS011;11965;53.640;10.050;2023-07-20T13:41:58;1.43;;;1.28;;
23573;SDS011;11965;53.640;10.050;2023-07-20T13:44:26;1.56;;;1.37;;
23573;SDS011;11965;53.640;10.050;2023-07-20T13:46:53;1.56;;;1.37;;
23573;SDS011;11965;53.640;10.050;2023-07-20T13:49:20;1.51;;;1.32;;
23573;SDS011;11965;53.640;10.050;2023-07-20T13:51:47;1.65;;;1.45;;
23573;SDS011;11965;53.640;10.050;2023-07-20T13:54:15;1.55;;;1.37;;
23573;SDS011;11965;53.640;10.050;2023-07-20T13:56:42;1.59;;;1.40;;
23573;SDS011;11965;53.640;10.050;2023-07-20T13:59:09;1.73;;;1.51;;
23573;SDS011;11965;53.640;10.050;2023-07-20T14:01:36;1.34;;;1.19;;
23573;SDS011;11965;53.640;10.050;2023-07-20T14:04:03;1.39;;;1.24;;
23573;SDS011;11965;53.640;10.050;2023-07-20T14:06:30;1.15;;;1.03;;
23573;SDS011;11965;53.640;10.050;2023-07-20T14:08:58;0.90;;;0.81;;
23573;SDS011;11965;53.640;10.050;2023-07-20T14:11:42;0.88;;;0.80;;
23573;SDS011;11965;53.640;10.050;2023-07-20T14:14:09;0.85;;;0.77;;
23573;SDS011;11965;53.640;10.050;2023-07-20T14:16:36;1.16;;;1.07;;
23573;SDS011;11965;53.640;10.050;2023-07-20T14:19:03;1.19;;;1.09;;
23573;SDS011;11965;53.640;10.050;2023-07-20T14:21:30;1.54;;;1.42;;
23573;SDS011;11965;53.640;10.050;2023-07-20T14:23:58;1.31;;;1.21;;
23573;SDS011;11965;53.640;10.050;2023-07-20T14:26:25;1.16;;;1.08;;
23573;SDS011;11965;53.640;10.050;2023-07-20T14:28:53;1.27;;;1.17;;
23573;SDS011;11965;53.640;10.050;2023-07-20T14:31:20;1.46;;;1.34;;
23573;SDS011;11965;53.640;10.050;2023-07-20T14:33:47;1.19;;;1.09;;
23573;SDS011;11965;53.640;10.050;2023-07-20T14:36:14;1.37;;;1.26;;
23573;SDS011;11965;53.640;10.050;2023-07-20T14:38:40;1.58;;;1.46;;
23573;SDS011;11965;53.640;10.050;2023-07-20T14:41:08;1.17;;;1.09;;
23573;SDS011;11965;53.640;10.050;2023-07-20T14:43:37;1.23;;;1.15;;
23573;SDS011;11965;53.640;10.050;2023-07-20T14:46:06;1.28;;;1.21;;
23573;SDS011;11965;53.640;10.050;2023-07-20T14:48:33;1.08;;;1.02;;